createdAt,value
2023-04-24T00:00:31.067Z,49.90
2023-04-24T00:02:33.598Z,49.90
2023-04-24T00:04:35.524Z,49.90
2023-04-24T00:06:37.854Z,49.90
2023-04-24T00:08:39.651Z,49.90
2023-04-24T00:10:41.810Z,49.90
2023-04-24T00:12:43.608Z,49.90
2023-04-24T00:14:45.358Z,49.90
2023-04-24T00:16:47.209Z,49.90
2023-04-24T00:18:49.170Z,50.00
2023-04-24T00:20:50.989Z,49.90
2023-04-24T00:22:52.818Z,50.00
2023-04-24T00:24:54.698Z,49.90
2023-04-24T00:26:56.416Z,49.80
2023-04-24T00:28:58.275Z,49.80
2023-04-24T00:31:02.279Z,49.90
2023-04-24T00:33:04.159Z,49.90
2023-04-24T00:35:06.435Z,49.90
2023-04-24T00:37:08.251Z,49.90
2023-04-24T00:39:10.057Z,49.80
2023-04-24T00:41:11.920Z,49.80
2023-04-24T00:43:13.731Z,49.80
2023-04-24T00:45:15.508Z,49.80
2023-04-24T00:47:17.293Z,49.90
2023-04-24T00:49:19.523Z,49.80
2023-04-24T00:51:21.269Z,49.80
2023-04-24T00:53:23.389Z,49.80
2023-04-24T00:55:25.767Z,49.80
2023-04-24T00:57:28.858Z,49.90
2023-04-24T00:59:30.847Z,49.80
2023-04-24T01:01:32.898Z,49.80
2023-04-24T01:03:35.663Z,49.80
2023-04-24T01:05:37.851Z,49.90
2023-04-24T01:07:40.328Z,49.90
2023-04-24T01:09:42.792Z,49.80
2023-04-24T01:11:44.961Z,49.80
2023-04-24T01:13:48.048Z,49.90
2023-04-24T01:15:49.916Z,49.80
2023-04-24T01:17:51.713Z,49.90
2023-04-24T01:19:53.787Z,49.90
2023-04-24T01:21:59.082Z,49.90
2023-04-24T01:24:00.851Z,49.90
2023-04-24T01:26:02.949Z,49.90
2023-04-24T01:28:04.790Z,49.90
2023-04-24T01:30:07.873Z,49.90
2023-04-24T01:32:09.685Z,49.90
2023-04-24T01:34:11.628Z,49.90
2023-04-24T01:36:14.430Z,49.90
2023-04-24T01:38:16.211Z,49.90
2023-04-24T01:40:18.081Z,49.90
2023-04-24T01:42:19.889Z,49.90
2023-04-24T01:44:22.484Z,49.80
2023-04-24T01:46:24.905Z,49.90
2023-04-24T01:48:26.771Z,49.90
2023-04-24T01:50:28.570Z,49.90
2023-04-24T01:52:30.498Z,49.80
2023-04-24T01:54:32.244Z,49.80
2023-04-24T01:58:40.978Z,49.80
2023-04-24T02:00:42.703Z,49.80
2023-04-24T02:02:48.009Z,49.80
2023-04-24T02:04:50.586Z,49.80
2023-04-24T02:06:52.563Z,49.90
2023-04-24T02:08:56.314Z,49.90
2023-04-24T02:10:58.048Z,49.80
2023-04-24T02:13:00.054Z,49.80
2023-04-24T02:15:01.874Z,49.80
2023-04-24T02:17:04.018Z,49.80
2023-04-24T02:19:05.984Z,49.80
2023-04-24T02:21:07.710Z,49.80
2023-04-24T02:23:10.851Z,49.80
2023-04-24T02:25:14.518Z,49.80
2023-04-24T02:27:16.455Z,49.80
2023-04-24T02:29:18.258Z,49.80
2023-04-24T02:31:20.035Z,49.80
2023-04-24T02:33:23.393Z,49.80
2023-04-24T02:35:25.190Z,49.80
2023-04-24T02:37:27.055Z,49.80
2023-04-24T02:39:28.759Z,49.80
2023-04-24T02:41:30.638Z,49.80
2023-04-24T02:43:32.665Z,49.80
2023-04-24T02:45:34.529Z,49.80
2023-04-24T02:47:36.378Z,49.80
2023-04-24T02:49:38.272Z,49.80
2023-04-24T02:51:40.450Z,49.80
2023-04-24T02:53:42.212Z,49.90
2023-04-24T02:55:44.023Z,49.80
2023-04-24T02:57:45.806Z,49.90
2023-04-24T02:59:47.636Z,49.80
2023-04-24T03:01:49.472Z,49.90
2023-04-24T03:03:51.530Z,49.80
2023-04-24T03:05:53.310Z,49.80
2023-04-24T03:07:55.070Z,49.80
2023-04-24T03:09:56.874Z,49.80
2023-04-24T03:11:58.642Z,49.70
2023-04-24T03:14:00.421Z,49.80
2023-04-24T03:16:02.214Z,49.70
2023-04-24T03:18:04.048Z,49.70
2023-04-24T03:20:06.443Z,49.80
2023-04-24T03:22:08.257Z,49.80
2023-04-24T03:24:10.091Z,49.80
2023-04-24T03:26:12.597Z,49.80
2023-04-24T03:28:24.822Z,49.80
2023-04-24T03:30:38.848Z,49.80
2023-04-24T03:32:41.282Z,49.80
2023-04-24T03:34:45.660Z,49.80
2023-04-24T03:36:49.896Z,49.80
2023-04-24T03:38:51.739Z,49.80
2023-04-24T03:41:05.484Z,49.80
2023-04-24T03:43:17.108Z,49.80
2023-04-24T03:45:19.729Z,49.80
2023-04-24T03:47:24.454Z,49.80
2023-04-24T03:49:27.946Z,49.80
2023-04-24T03:51:29.808Z,49.80
2023-04-24T03:53:36.287Z,49.80
2023-04-24T03:55:38.341Z,49.80
2023-04-24T03:57:41.270Z,49.80
2023-04-24T03:59:52.210Z,49.80
2023-04-24T04:01:54.470Z,49.80
2023-04-24T04:03:56.462Z,49.80
2023-04-24T04:06:00.803Z,49.80
2023-04-24T04:08:02.666Z,49.80
2023-04-24T04:10:04.653Z,49.80
2023-04-24T04:12:06.505Z,49.80
2023-04-24T04:14:09.377Z,49.70
2023-04-24T04:16:14.570Z,49.80
2023-04-24T04:18:16.936Z,49.70
2023-04-24T04:20:18.984Z,49.80
2023-04-24T04:22:20.883Z,49.70
2023-04-24T04:24:25.681Z,49.90
2023-04-24T04:26:27.955Z,49.70
2023-04-24T04:28:37.323Z,49.70
2023-04-24T04:30:39.081Z,49.80
2023-04-24T04:32:40.925Z,49.70
2023-04-24T04:34:43.483Z,49.80
2023-04-24T04:36:47.268Z,49.70
2023-04-24T04:39:09.349Z,49.70
2023-04-24T04:41:33.906Z,49.80
2023-04-24T04:43:35.902Z,49.80
2023-04-24T04:45:38.420Z,49.80
2023-04-24T04:47:55.626Z,49.80
2023-04-24T04:49:57.573Z,49.70
2023-04-24T04:52:02.322Z,49.80
2023-04-24T04:54:04.496Z,49.80
2023-04-24T04:56:06.409Z,49.80
2023-04-24T04:58:20.677Z,49.80
2023-04-24T05:00:26.446Z,49.80
2023-04-24T05:02:29.147Z,49.80
2023-04-24T05:04:31.381Z,49.90
2023-04-24T05:06:33.374Z,49.70
2023-04-24T05:08:35.340Z,49.80
2023-04-24T05:10:39.422Z,49.80
2023-04-24T05:12:41.910Z,49.80
2023-04-24T05:14:44.498Z,49.80
2023-04-24T05:16:47.662Z,49.80
2023-04-24T05:18:50.957Z,49.80
2023-04-24T05:20:56.962Z,49.80
2023-04-24T05:23:01.485Z,49.80
2023-04-24T05:25:04.540Z,49.80
2023-04-24T05:27:17.043Z,49.80
2023-04-24T05:29:19.075Z,49.80
2023-04-24T05:31:20.953Z,49.80
2023-04-24T05:33:23.003Z,49.80
2023-04-24T05:35:24.816Z,49.80
2023-04-24T05:37:26.691Z,49.80
2023-04-24T05:39:28.690Z,49.80
2023-04-24T05:41:30.484Z,49.70
2023-04-24T05:43:32.248Z,49.80
2023-04-24T05:45:34.019Z,49.80
2023-04-24T05:47:36.428Z,49.70
2023-04-24T05:49:38.295Z,49.70
2023-04-24T05:51:40.718Z,49.80
2023-04-24T05:53:42.671Z,49.80
2023-04-24T05:55:44.858Z,49.70
2023-04-24T05:57:46.941Z,49.70
2023-04-24T05:59:48.694Z,49.70
2023-04-24T06:01:54.391Z,49.70
2023-04-24T06:03:58.931Z,49.70
2023-04-24T06:06:01.323Z,49.80
2023-04-24T06:08:03.479Z,49.70
2023-04-24T06:10:10.016Z,49.70
2023-04-24T06:12:17.468Z,49.70
2023-04-24T06:14:45.251Z,49.70
2023-04-24T06:16:52.726Z,49.70
2023-04-24T06:19:14.014Z,49.80
2023-04-24T06:21:17.381Z,49.70
2023-04-24T06:23:20.034Z,49.70
2023-04-24T06:25:25.739Z,49.70
2023-04-24T06:27:27.523Z,49.70
2023-04-24T06:29:29.363Z,49.70
2023-04-24T06:31:31.305Z,49.80
2023-04-24T06:33:33.181Z,49.80
2023-04-24T06:35:35.356Z,49.70
2023-04-24T06:37:37.139Z,49.70
2023-04-24T06:39:38.949Z,49.80
2023-04-24T06:41:41.143Z,49.70
2023-04-24T06:43:49.061Z,49.70
2023-04-24T06:45:50.899Z,49.70
2023-04-24T06:47:52.804Z,49.70
2023-04-24T06:49:54.589Z,49.70
2023-04-24T06:51:56.391Z,49.70
2023-04-24T06:53:58.170Z,49.80
2023-04-24T06:56:00.078Z,49.70
2023-04-24T06:58:01.982Z,49.70
2023-04-24T07:00:04.848Z,49.80
2023-04-24T07:02:06.660Z,49.70
2023-04-24T07:04:08.538Z,49.70
2023-04-24T07:06:10.618Z,49.70
2023-04-24T07:08:12.373Z,49.70
2023-04-24T07:10:14.217Z,49.70
2023-04-24T07:12:15.981Z,49.70
2023-04-24T07:14:18.110Z,49.70
2023-04-24T07:16:20.693Z,49.70
2023-04-24T07:18:22.894Z,49.70
2023-04-24T07:20:24.698Z,49.70
2023-04-24T07:22:26.525Z,49.70
2023-04-24T07:24:30.846Z,49.70
2023-04-24T07:26:32.993Z,49.70
2023-04-24T07:28:34.885Z,49.80
2023-04-24T07:30:36.696Z,49.70
2023-04-24T07:32:38.532Z,49.70
2023-04-24T07:34:40.345Z,49.70
2023-04-24T07:36:42.239Z,49.70
2023-04-24T07:38:44.131Z,49.70
2023-04-24T07:40:48.522Z,49.70
2023-04-24T07:42:50.452Z,49.70
2023-04-24T07:44:52.219Z,49.70
2023-04-24T07:46:54.229Z,49.70
2023-04-24T07:49:09.202Z,49.70
2023-04-24T07:51:13.919Z,49.70
2023-04-24T07:53:15.697Z,49.70
2023-04-24T07:55:17.484Z,49.70
2023-04-24T07:57:19.355Z,49.70
2023-04-24T07:59:21.105Z,49.70
2023-04-24T08:01:22.886Z,49.70
2023-04-24T08:03:24.716Z,49.70
2023-04-24T08:05:26.736Z,49.70
2023-04-24T08:07:28.764Z,49.70
2023-04-24T08:09:30.594Z,49.70
2023-04-24T08:11:32.505Z,49.70
2023-04-24T08:13:34.270Z,49.70
2023-04-24T08:15:36.072Z,49.70
2023-04-24T08:17:37.868Z,49.70
2023-04-24T08:19:41.185Z,49.70
2023-04-24T08:21:43.137Z,49.70
2023-04-24T08:23:45.190Z,49.70
2023-04-24T08:25:46.967Z,49.60
2023-04-24T08:27:48.776Z,49.60
2023-04-24T08:29:50.811Z,49.60
2023-04-24T08:31:52.633Z,49.60
2023-04-24T08:33:54.484Z,49.70
2023-04-24T08:35:56.247Z,49.60
2023-04-24T08:37:58.070Z,49.60
2023-04-24T08:39:59.827Z,49.70
2023-04-24T08:42:02.734Z,49.70
2023-04-24T08:44:04.512Z,49.70
2023-04-24T08:46:10.280Z,49.60
2023-04-24T08:48:27.445Z,49.60
2023-04-24T08:50:32.757Z,49.70
2023-04-24T08:52:34.953Z,49.70
2023-04-24T08:54:36.912Z,49.70
2023-04-24T08:56:39.707Z,49.60
2023-04-24T08:58:42.219Z,49.60
2023-04-24T09:00:44.100Z,49.60
2023-04-24T09:02:47.327Z,50.20
2023-04-24T09:04:50.019Z,49.70
2023-04-24T09:06:56.732Z,49.70
2023-04-24T09:09:01.370Z,49.70
2023-04-24T09:11:03.126Z,49.70
2023-04-24T09:13:05.562Z,49.60
2023-04-24T09:15:08.033Z,49.60
2023-04-24T09:17:09.863Z,49.60
2023-04-24T09:19:11.692Z,49.70
2023-04-24T09:21:13.537Z,49.60
2023-04-24T09:23:18.407Z,49.60
2023-04-24T09:25:20.248Z,49.70
2023-04-24T09:27:24.179Z,49.70
2023-04-24T09:29:25.965Z,49.70
2023-04-24T09:31:28.974Z,49.60
2023-04-24T09:33:31.173Z,49.60
2023-04-24T09:35:33.063Z,49.60
2023-04-24T09:37:38.871Z,49.60
2023-04-24T09:39:40.901Z,49.70
2023-04-24T09:41:49.986Z,49.60
2023-04-24T09:43:51.733Z,49.60
2023-04-24T09:45:58.011Z,49.60
2023-04-24T09:48:00.222Z,49.60
2023-04-24T09:50:09.698Z,49.60
2023-04-24T09:52:12.063Z,49.60
2023-04-24T09:54:17.921Z,49.60
2023-04-24T09:56:19.746Z,49.60
2023-04-24T09:58:27.705Z,49.60
2023-04-24T10:00:30.852Z,49.60
2023-04-24T10:02:32.911Z,49.50
2023-04-24T10:04:34.858Z,49.50
2023-04-24T10:06:37.100Z,49.50
2023-04-24T10:08:38.931Z,49.50
2023-04-24T10:10:41.721Z,49.50
2023-04-24T10:12:43.909Z,49.50
2023-04-24T10:14:48.524Z,49.50
2023-04-24T10:16:51.114Z,49.50
2023-04-24T10:18:53.012Z,49.60
2023-04-24T10:20:55.088Z,49.50
2023-04-24T10:22:58.250Z,49.60
2023-04-24T10:25:00.203Z,49.50
2023-04-24T10:27:02.587Z,49.50
2023-04-24T10:29:05.864Z,49.60
2023-04-24T10:31:07.849Z,49.50
2023-04-24T10:33:09.851Z,49.60
2023-04-24T10:35:15.231Z,49.60
2023-04-24T10:37:17.113Z,49.50
2023-04-24T10:39:19.527Z,49.60
2023-04-24T10:41:21.405Z,49.50
2023-04-24T10:43:23.249Z,49.60
2023-04-24T10:45:25.395Z,49.50
2023-04-24T10:47:27.216Z,49.50
2023-04-24T10:49:29.646Z,49.50
2023-04-24T10:52:03.985Z,49.50
2023-04-24T10:54:22.757Z,49.50
2023-04-24T10:56:24.558Z,49.50
2023-04-24T10:58:36.714Z,49.60
2023-04-24T11:00:42.070Z,49.50
2023-04-24T11:02:46.681Z,49.50
2023-04-24T11:04:52.045Z,49.40
2023-04-24T11:06:53.878Z,49.50
2023-04-24T11:09:02.339Z,49.40
2023-04-24T11:11:04.173Z,49.40
2023-04-24T11:13:05.966Z,49.40
2023-04-24T11:15:11.258Z,49.50
2023-04-24T11:17:27.852Z,49.50
2023-04-24T11:19:29.827Z,49.50
2023-04-24T11:21:41.846Z,49.50
2023-04-24T11:23:43.738Z,49.50
2023-04-24T11:25:45.568Z,49.40
2023-04-24T11:27:47.379Z,49.50
2023-04-24T11:29:58.806Z,49.40
2023-04-24T11:32:15.067Z,49.50
2023-04-24T11:34:17.056Z,49.50
2023-04-24T11:36:20.227Z,49.60
2023-04-24T11:38:25.032Z,49.50
2023-04-24T11:40:27.104Z,49.50
2023-04-24T11:42:29.179Z,49.50
2023-04-24T11:44:32.397Z,49.50
2023-04-24T11:46:34.252Z,49.50
2023-04-24T11:48:36.223Z,49.50
2023-04-24T11:50:38.058Z,49.50
2023-04-24T11:52:40.862Z,49.50
2023-04-24T11:54:48.205Z,49.50
2023-04-24T11:56:50.512Z,49.60
2023-04-24T11:58:55.342Z,49.50
2023-04-24T12:00:57.790Z,49.50
2023-04-24T12:03:09.713Z,49.50
2023-04-24T12:05:41.120Z,49.50
2023-04-24T12:07:43.226Z,49.50
2023-04-24T12:09:47.499Z,49.50
2023-04-24T12:11:57.679Z,49.50
2023-04-24T12:14:10.270Z,49.50
2023-04-24T12:16:12.104Z,49.50
2023-04-24T12:18:15.661Z,49.50
2023-04-24T12:20:17.538Z,49.50
2023-04-24T12:22:19.253Z,49.50
2023-04-24T12:24:21.039Z,49.50
2023-04-24T12:26:22.851Z,49.50
2023-04-24T12:28:24.604Z,49.50
2023-04-24T12:30:29.574Z,49.50
2023-04-24T12:32:31.610Z,49.50
2023-04-24T12:34:33.378Z,49.50
2023-04-24T12:36:36.230Z,49.50
2023-04-24T12:38:38.112Z,49.50
2023-04-24T12:40:40.054Z,49.50
2023-04-24T12:42:45.957Z,49.50
2023-04-24T12:44:48.056Z,49.40
2023-04-24T12:46:49.876Z,49.40
2023-04-24T12:48:51.657Z,49.50
2023-04-24T12:50:53.609Z,49.40
2023-04-24T12:52:55.371Z,49.50
2023-04-24T12:54:58.284Z,49.40
2023-04-24T12:57:00.052Z,49.40
2023-04-24T12:59:01.807Z,49.40
2023-04-24T13:01:03.678Z,49.40
2023-04-24T13:03:05.657Z,49.40
2023-04-24T13:05:07.660Z,49.40
2023-04-24T13:07:09.476Z,49.40
2023-04-24T13:09:11.212Z,49.40
2023-04-24T13:11:13.057Z,49.40
2023-04-24T13:13:15.100Z,49.40
2023-04-24T13:15:16.888Z,49.40
2023-04-24T13:17:18.747Z,49.40
2023-04-24T13:19:20.957Z,49.50
2023-04-24T13:21:22.767Z,49.40
2023-04-24T13:23:24.490Z,49.40
2023-04-24T13:25:26.255Z,49.50
2023-04-24T13:27:28.072Z,49.40
2023-04-24T13:29:29.821Z,49.50
2023-04-24T13:31:31.637Z,49.40
2023-04-24T13:33:33.503Z,49.50
2023-04-24T13:35:35.356Z,49.50
2023-04-24T13:37:37.308Z,49.50
2023-04-24T13:39:39.123Z,49.50
2023-04-24T13:41:40.984Z,49.40
2023-04-24T13:43:42.980Z,49.50
2023-04-24T13:45:44.888Z,49.40
2023-04-24T13:47:46.687Z,49.40
2023-04-24T13:49:48.532Z,49.40
2023-04-24T13:51:50.277Z,49.50
2023-04-24T13:53:52.043Z,49.50
2023-04-24T13:55:53.819Z,49.40
2023-04-24T13:57:55.748Z,49.50
2023-04-24T13:59:58.690Z,49.50
2023-04-24T14:02:00.511Z,49.50
2023-04-24T14:04:02.587Z,49.60
2023-04-24T14:06:04.647Z,49.50
2023-04-24T14:08:06.442Z,49.50
2023-04-24T14:10:08.489Z,49.50
2023-04-24T14:12:10.422Z,49.40
2023-04-24T14:14:12.227Z,49.50
2023-04-24T14:16:14.139Z,49.50
2023-04-24T14:18:16.064Z,49.50
2023-04-24T14:20:17.916Z,49.50
2023-04-24T14:22:19.685Z,49.50
2023-04-24T14:24:21.458Z,49.50
2023-04-24T14:26:23.248Z,49.50
2023-04-24T14:28:25.290Z,49.50
2023-04-24T14:30:27.102Z,49.50
2023-04-24T14:32:28.893Z,49.50
2023-04-24T14:34:30.721Z,50.10
2023-04-24T14:36:32.451Z,49.50
2023-04-24T14:38:34.955Z,49.50
2023-04-24T14:41:04.744Z,49.40
2023-04-24T14:42:58.909Z,49.50
2023-04-24T14:45:00.748Z,49.40
2023-04-24T14:47:02.671Z,49.40
2023-04-24T14:49:04.526Z,49.50
2023-04-24T14:51:06.369Z,49.50
2023-04-24T14:53:08.081Z,49.40
2023-04-24T14:55:09.908Z,49.50
2023-04-24T14:57:11.706Z,49.40
2023-04-24T14:59:13.515Z,49.40
2023-04-24T15:01:16.425Z,49.40
2023-04-24T15:03:19.916Z,49.40
2023-04-24T15:05:22.258Z,49.50
2023-04-24T15:07:24.427Z,49.40
2023-04-24T15:09:26.197Z,49.40
2023-04-24T15:11:27.976Z,49.40
2023-04-24T15:13:29.819Z,49.40
2023-04-24T15:15:31.666Z,49.50
2023-04-24T15:17:33.486Z,49.50
2023-04-24T15:19:35.274Z,49.50
2023-04-24T15:21:37.633Z,49.40
2023-04-24T15:23:39.450Z,49.50
2023-04-24T15:25:42.903Z,49.60
2023-04-24T15:27:45.130Z,49.60
2023-04-24T15:29:48.475Z,49.60
2023-04-24T15:31:50.352Z,49.50
2023-04-24T15:33:52.216Z,49.50
2023-04-24T15:35:53.936Z,49.60
2023-04-24T15:37:55.778Z,49.50
2023-04-24T15:39:57.500Z,49.50
2023-04-24T15:42:00.006Z,49.40
2023-04-24T15:44:01.768Z,49.40
2023-04-24T15:46:03.997Z,49.40
2023-04-24T15:48:05.991Z,49.50
2023-04-24T15:50:07.920Z,49.40
2023-04-24T15:52:09.616Z,49.40
2023-04-24T15:54:11.394Z,49.50
2023-04-24T15:56:13.827Z,49.40
2023-04-24T15:58:15.815Z,49.40
2023-04-24T16:00:17.801Z,49.40
2023-04-24T16:02:19.755Z,49.40
2023-04-24T16:04:21.731Z,49.30
2023-04-24T16:06:23.745Z,49.30
2023-04-24T16:08:25.491Z,49.40
2023-04-24T16:10:27.648Z,49.30
2023-04-24T16:12:29.381Z,49.40
2023-04-24T16:14:31.188Z,49.40
2023-04-24T16:16:33.125Z,49.40
2023-04-24T16:18:35.006Z,49.40
2023-04-24T16:20:36.729Z,49.40
2023-04-24T16:22:41.540Z,49.40
2023-04-24T16:24:43.300Z,49.40
2023-04-24T16:26:45.059Z,49.40
2023-04-24T16:28:46.846Z,49.40
2023-04-24T16:30:48.774Z,49.40
2023-04-24T16:32:50.557Z,49.40
2023-04-24T16:34:52.419Z,50.00
2023-04-24T16:36:54.188Z,49.40
2023-04-24T16:38:56.044Z,49.40
2023-04-24T16:40:57.744Z,49.40
2023-04-24T16:42:59.545Z,49.40
2023-04-24T16:45:01.247Z,49.40
2023-04-24T16:47:03.305Z,49.40
2023-04-24T16:49:05.121Z,49.40
2023-04-24T16:51:06.876Z,49.40
2023-04-24T16:53:08.608Z,49.40
2023-04-24T16:55:10.417Z,49.40
2023-04-24T16:57:12.141Z,49.50
2023-04-24T16:59:14.120Z,49.40
2023-04-24T17:01:15.933Z,49.40
2023-04-24T17:03:17.924Z,49.40
2023-04-24T17:05:19.764Z,49.40
2023-04-24T17:07:21.599Z,49.40
2023-04-24T17:09:23.349Z,49.50
2023-04-24T17:11:25.103Z,49.40
2023-04-24T17:13:26.854Z,49.40
2023-04-24T17:15:28.649Z,49.50
2023-04-24T17:17:30.418Z,49.40
2023-04-24T17:19:32.192Z,49.40
2023-04-24T17:21:33.898Z,49.40
2023-04-24T17:23:35.706Z,49.40
2023-04-24T17:25:37.553Z,49.40
2023-04-24T17:27:39.357Z,49.40
2023-04-24T17:29:41.087Z,49.40
2023-04-24T17:31:42.958Z,49.40
2023-04-24T17:33:44.720Z,49.40
2023-04-24T17:35:46.505Z,49.40
2023-04-24T17:37:48.267Z,49.50
2023-04-24T17:39:50.197Z,49.50
2023-04-24T17:41:51.919Z,49.50
2023-04-24T17:43:53.697Z,49.50
2023-04-24T17:45:55.545Z,49.40
2023-04-24T17:47:57.455Z,49.50
2023-04-24T17:49:59.221Z,49.50
2023-04-24T17:52:00.974Z,49.40
2023-04-24T17:54:02.716Z,49.50
2023-04-24T17:56:04.653Z,49.40
2023-04-24T17:58:06.433Z,49.50
2023-04-24T18:00:08.490Z,49.40
2023-04-24T18:02:10.345Z,49.50
2023-04-24T18:04:12.364Z,49.40
2023-04-24T18:06:14.225Z,49.50
2023-04-24T18:08:16.134Z,49.50
2023-04-24T18:10:17.881Z,49.50
2023-04-24T18:12:19.671Z,49.50
2023-04-24T18:14:21.448Z,49.50
2023-04-24T18:16:25.212Z,49.50
2023-04-24T18:18:27.591Z,49.50
2023-04-24T18:20:29.403Z,49.50
2023-04-24T18:22:31.141Z,49.40
2023-04-24T18:24:32.902Z,49.50
2023-04-24T18:26:34.643Z,49.50
2023-04-24T18:28:36.449Z,49.50
2023-04-24T18:30:38.213Z,49.50
2023-04-24T18:32:40.099Z,49.50
2023-04-24T18:34:41.878Z,49.50
2023-04-24T18:36:43.680Z,49.50
2023-04-24T18:38:45.417Z,49.50
2023-04-24T18:40:47.216Z,49.40
2023-04-24T18:42:49.032Z,49.50
2023-04-24T18:44:50.822Z,49.50
2023-04-24T18:46:52.590Z,49.50
2023-04-24T18:48:54.436Z,49.50
2023-04-24T18:50:56.153Z,49.50
2023-04-24T18:52:58.028Z,49.30
2023-04-24T18:54:59.746Z,49.30
2023-04-24T18:57:01.515Z,49.30
2023-04-24T18:59:03.253Z,49.30
2023-04-24T19:01:06.819Z,49.30
2023-04-24T19:03:09.890Z,49.30
2023-04-24T19:05:11.831Z,49.30
2023-04-24T19:07:13.546Z,49.30
2023-04-24T19:09:15.278Z,49.30
2023-04-24T19:11:17.153Z,49.30
2023-04-24T19:13:18.933Z,49.30
2023-04-24T19:15:20.650Z,49.30
2023-04-24T19:17:22.525Z,49.30
2023-04-24T19:19:24.261Z,49.30
2023-04-24T19:21:26.070Z,49.30
2023-04-24T19:23:27.828Z,49.20
2023-04-24T19:25:29.636Z,49.20
2023-04-24T19:27:31.350Z,49.20
2023-04-24T19:29:33.215Z,49.20
2023-04-24T19:31:35.088Z,49.10
2023-04-24T19:33:36.933Z,49.20
2023-04-24T19:35:38.691Z,49.10
2023-04-24T19:37:40.527Z,49.10
2023-04-24T19:39:42.299Z,49.20
2023-04-24T19:41:44.170Z,49.10
2023-04-24T19:43:45.869Z,49.10
2023-04-24T19:45:47.921Z,49.10
2023-04-24T19:47:49.723Z,49.10
2023-04-24T19:49:51.552Z,49.10
2023-04-24T19:51:53.248Z,49.10
2023-04-24T19:53:55.324Z,49.10
2023-04-24T19:55:57.048Z,49.10
2023-04-24T19:57:58.851Z,49.10
2023-04-24T20:00:04.085Z,49.10
2023-04-24T20:02:06.731Z,49.10
2023-04-24T20:04:08.763Z,49.10
2023-04-24T20:06:10.679Z,49.10
2023-04-24T20:08:12.380Z,49.00
2023-04-24T20:10:14.145Z,49.00
2023-04-24T20:12:15.907Z,49.00
2023-04-24T20:14:17.809Z,49.00
2023-04-24T20:16:19.571Z,49.00
2023-04-24T20:18:21.477Z,49.00
2023-04-24T20:20:23.218Z,49.00
2023-04-24T20:22:25.154Z,48.90
2023-04-24T20:24:26.915Z,48.90
2023-04-24T20:26:28.728Z,49.00
2023-04-24T20:28:30.642Z,48.90
2023-04-24T20:30:32.467Z,48.90
2023-04-24T20:32:34.255Z,48.90
2023-04-24T20:34:36.115Z,49.00
2023-04-24T20:36:37.877Z,49.00
2023-04-24T20:38:39.717Z,48.90
2023-04-24T20:40:53.849Z,48.90
2023-04-24T20:42:58.865Z,48.90
2023-04-24T20:45:00.970Z,48.90
2023-04-24T20:47:02.938Z,49.00
2023-04-24T20:49:04.810Z,48.90
2023-04-24T20:51:06.615Z,48.90
2023-04-24T20:53:08.596Z,48.90
2023-04-24T20:55:10.459Z,48.90
2023-04-24T20:57:12.355Z,48.90
2023-04-24T20:59:14.134Z,48.90
2023-04-24T21:01:16.056Z,48.90
2023-04-24T21:03:17.995Z,48.90
2023-04-24T21:05:19.875Z,48.90
2023-04-24T21:07:21.737Z,48.80
2023-04-24T21:09:23.693Z,48.80
2023-04-24T21:11:25.478Z,48.80
2023-04-24T21:13:27.274Z,48.90
2023-04-24T21:15:29.111Z,48.90
2023-04-24T21:17:30.880Z,48.90
2023-04-24T21:19:32.732Z,48.90
2023-04-24T21:21:34.475Z,48.80
2023-04-24T21:23:36.255Z,48.90
2023-04-24T21:25:38.765Z,48.90
2023-04-24T21:27:40.838Z,48.90
2023-04-24T21:29:42.583Z,48.90
2023-04-24T21:31:44.477Z,48.90
2023-04-24T21:33:46.391Z,48.90
2023-04-24T21:35:48.377Z,48.90
2023-04-24T21:37:50.120Z,48.90
2023-04-24T21:39:51.934Z,48.90
2023-04-24T21:41:53.702Z,48.90
2023-04-24T21:43:55.869Z,48.90
2023-04-24T21:45:57.909Z,48.90
2023-04-24T21:47:59.905Z,49.00
2023-04-24T21:50:01.865Z,49.00
2023-04-24T21:52:03.646Z,49.00
2023-04-24T21:54:05.364Z,49.00
2023-04-24T21:56:07.239Z,48.90
2023-04-24T21:58:08.963Z,48.90
2023-04-24T22:00:10.954Z,49.00
2023-04-24T22:02:13.889Z,49.00
2023-04-24T22:04:16.022Z,48.80
2023-04-24T22:06:17.999Z,49.00
2023-04-24T22:08:19.848Z,48.80
2023-04-24T22:10:21.650Z,49.00
2023-04-24T22:12:23.447Z,48.90
2023-04-24T22:14:25.272Z,48.90
2023-04-24T22:16:29.657Z,48.90
2023-04-24T22:18:46.172Z,48.90
2023-04-24T22:20:48.718Z,48.90
2023-04-24T22:22:50.450Z,48.90
2023-04-24T22:24:52.391Z,48.90
2023-04-24T22:26:54.129Z,48.90
2023-04-24T22:28:55.869Z,48.90
2023-04-24T22:30:57.641Z,48.90
2023-04-24T22:32:59.482Z,48.90
2023-04-24T22:35:01.197Z,48.90
2023-04-24T22:37:02.996Z,48.90
2023-04-24T22:39:04.756Z,48.90
2023-04-24T22:41:06.559Z,48.90
2023-04-24T22:43:08.483Z,48.90
2023-04-24T22:45:10.580Z,48.90
2023-04-24T22:47:12.322Z,48.90
2023-04-24T22:49:14.126Z,48.90
2023-04-24T22:51:15.954Z,48.90
2023-04-24T22:53:18.330Z,48.90
2023-04-24T22:55:20.070Z,48.90
2023-04-24T22:57:21.858Z,48.80
2023-04-24T22:59:23.586Z,48.80
2023-04-24T23:01:25.477Z,48.80
2023-04-24T23:03:27.467Z,48.80
2023-04-24T23:05:29.817Z,48.70
2023-04-24T23:07:31.604Z,49.40
2023-04-24T23:09:33.413Z,48.80
2023-04-24T23:11:35.160Z,48.80
2023-04-24T23:13:36.992Z,48.80
2023-04-24T23:15:38.763Z,48.70
2023-04-24T23:17:40.561Z,48.70
2023-04-24T23:19:42.306Z,48.70
2023-04-24T23:21:44.148Z,48.70
2023-04-24T23:23:45.877Z,48.70
2023-04-24T23:25:47.681Z,48.70
2023-04-24T23:27:49.433Z,48.70
2023-04-24T23:29:51.187Z,48.70
2023-04-24T23:31:53.004Z,48.70
2023-04-24T23:33:54.873Z,48.70
2023-04-24T23:35:56.616Z,48.80
2023-04-24T23:37:58.375Z,48.70
2023-04-24T23:40:00.175Z,48.70
2023-04-24T23:42:01.953Z,48.80
2023-04-24T23:44:03.711Z,48.70
2023-04-24T23:46:05.591Z,48.80
2023-04-24T23:48:07.438Z,48.80
2023-04-24T23:50:09.498Z,48.80
2023-04-24T23:52:11.254Z,48.80
2023-04-24T23:54:13.058Z,48.80
2023-04-24T23:56:14.791Z,48.80
2023-04-24T23:58:17.899Z,48.80
